NCAR-RAP Real-Time Weather Data

Output produced by METARs form (18 August 2018  01:02 UTC)
found at http://weather.rap.ucar.edu/surface/
 
RJSK 180000Z 27004KT 220V320 9999 FEW020 BKN/// 19/12 Q1014
RJSK 172300Z VRB02KT 9999 FEW010 BKN/// 18/13 Q1014
RJSK 172210Z VRB02KT 9999 R28/P1800N PRFG FEW001 SCT035 BKN/// 16/14 Q1014 RMK 1ST001 3CU035 A2994 1000NE-SE
RJSK 172200Z VRB02KT 9999 R28/1000VP1800U PRFG FEW001 SCT035 BKN/// 15/13 Q1014
RJSK 172140Z 12002KT 5000 R28/0550VP1800D PRFG BR FEW001 SCT040 BKN/// 15/14 Q1014 RMK 1ST001 3CU040 A2994 0800NE-SE
RJSK 171200Z 32003KT 9999 FEW010 BKN070 17/13 Q1012
RJSK 171100Z 31007KT 9999 FEW010 SCT060 18/13 Q1011
RJSK 171000Z 31007KT 9999 VCSH FEW010 SCT050 BKN060 18/13 Q1011
RJSK 170900Z 31010KT 290V350 9999 VCSH FEW010 SCT030 19/13 Q1010
RJSK 170800Z 32009KT 9999 FEW030 SCT040 20/12 Q1009
RJSK 170700Z 33007KT 9999 FEW030 SCT040 21/12 Q1009
RJSK 170600Z 35006KT 310V010 9999 FEW030 SCT050 BKN060 20/12 Q1009
RJSK 170500Z 32006KT 9999 FEW025 BKN050 20/13 Q1009
RJSK 170400Z 34010KT 300V020 9999 FEW030 BKN050 22/13 Q1009
RJSK 170300Z 34012G24KT 310V030 9999 -SHRA FEW005 SCT020 BKN040 20/13 Q1008
RJSK 170200Z 32012KT 9999 FEW010 SCT020 BKN100 19/14 Q1008
RJSK 170100Z 33010KT 290V010 9999 FEW004 SCT008 BKN025 17/15 Q1008
RJSK 170050Z 33011KT 9999 FEW004 BKN008 BKN012 18/16 Q1008 RMK 1ST004 5ST008 6ST012 A2978
RJSK 170018Z 32011KT 8000 -SHRA FEW002 BKN005 BKN008 17/15 Q1008 RMK 1ST002 5ST005 6ST008 A2977
RJSK 170000Z 31014KT 4000 -SHRA BR FEW002 BKN007 BKN010 16/14 Q1007
RJSK 162350Z 31014KT 3500 -SHRA BR FEW002 BKN007 BKN010 16/14 Q1007 RMK 1ST002 5ST007 6ST010 A2976
RJSK 162300Z 31015KT 6000 -SHRA FEW003 BKN007 BKN015 16/15 Q1007
RJSK 162200Z 30016KT 6000 -SHRA FEW004 SCT008 BKN015 17/15 Q1006
RJSK 162140Z 31013KT 6000 SHRA FEW004 SCT008 BKN015 16/15 Q1005 RMK 1ST004 3ST008 6CU015 A2970
RJSK 161200Z 29012KT 9999 VCSH FEW010 SCT030 BKN050 20/16 Q1003
RJSK 161100Z 29007KT 9999 -SHRA FEW008 SCT025 BKN030 20/17 Q1003
RJSK 161000Z 28006KT 9999 FEW003 SCT020 BKN030 21/19 Q1002
RJSK 160900Z VRB02KT 6000 R28/1200VP1800D -SHRA FEW001 SCT008 BKN015 21/20 Q1002
RJSK 160800Z 31011KT 8000 -SHRA FEW005 SCT009 BKN015 21/19 Q1002
RJSK 160737Z 30010KT 4000 -SHRA BR FEW003 SCT007 BKN012 21/19 Q1001 RMK 1ST003 3ST007 6CU012 A2958
RJSK 160713Z 30015KT 7000 R28/1800U -SHRA FEW003 SCT005 BKN015 21/19 Q1001 RMK 1ST003 3ST005 6CU015 A2958 P/RR
RJSK 160700Z 30018G29KT 4000 -SHRA BR FEW004 SCT006 BKN015 21/19 Q1001
RJSK 160641Z 29022G35KT 1500 R28/1500VP1800N +SHRA BR FEW001 SCT003 BKN006 22/20 Q1000 RMK 1ST001 3ST003 5ST006 A2955 RI++
RJSK 160621Z 28018G28KT 6000 R28/1000VP1800U -SHRA FEW002 SCT004 BKN008 22/21 Q1000 RMK 1ST002 3ST004 5ST008 A2954
RJSK 160613Z 27017KT 1200 R28/1100VP1800D +SHRA BR FEW001 SCT003 BKN005 22/21 Q1000 RMK 1ST001 3ST003 6ST005 A2954 RI++
RJSK 160604Z 26016KT 1500 R28/1200VP1800U +SHRA BR FEW001 SCT003 BKN005 23/21 Q1000 RMK 1ST001 3ST003 6ST005 A2954
RJSK 160600Z 25018KT 1500 R28/0800VP1800U SHRA BR FEW001 SCT003 BKN005 23/21 Q1000
RJSK 160550Z 21005KT 160V280 1200 R28/0800VP1800U +SHRA BR FEW001 BKN003 BKN006 23/21 Q1000 RMK 1ST001 5ST003 6ST006 A2954 RI++
RJSK 160546Z 19004KT 110V280 2000 R28/0800VP1800D SHRA BR FEW002 SCT004 BKN008 23/21 Q1000 RMK 1ST002 4ST004 6ST008 A2954
RJSK 160515Z VRB01KT 9999 VCSH FEW001 SCT004 BKN013 23/21 Q1000 RMK 1ST001 4ST004 6CU013 A2955
RJSK 160500Z VRB03KT 9999 VCSH FEW001 SCT003 BKN004 22/21 Q1000
RJSK 160400Z 12009KT 9999 -SHRA FEW001 BKN004 BKN007 22/21 Q1001
RJSK 160337Z 13005KT 100V160 8000 -SHRA FEW001 SCT003 BKN007 21/20 Q1002 RMK 1ST001 3ST003 5ST007 A2960
RJSK 160300Z 13006KT 9999 -SHRA FEW001 SCT025 BKN035 21/20 Q1002
RJSK 160234Z 13007KT 5000 -SHRA BR FEW001 SCT004 BKN020 21/20 Q1002 RMK 1ST001 4ST004 5CU020 A2961 P/FR
RJSK 160222Z 13004KT 100V170 3500 R28/P1800N SHRA PRFG BR FEW001 SCT004 BKN008 22/21 Q1002 RMK 1ST001 3ST004 5ST008 A2961 1500NE-E
RJSK 160210Z 13004KT 3000 R28/1400VP1800U SHRA PRFG BR FEW001 SCT004 BKN015 22/21 Q1003 RMK 1ST001 3ST004 5CU015 A2963 1000NE-E
RJSK 160200Z VRB01KT 3500 R28/P1800N +SHRA PRFG BR FEW001 SCT004 BKN009 22/20 Q1004
RJSK 160145Z VRB02KT 3000 R28/1600VP1800N SHRA PRFG BR FEW001 SCT003 BKN008 21/20 Q1003 RMK 1ST001 3ST003 5ST008 A2963 1200NE-E
RJSK 160100Z 13004KT 100V160 4500 SHRA PRFG BR FEW001 SCT003 BKN010 22/20 Q1004
RJSK 160039Z 11005KT 3500 R28/P1800N SHRA PRFG BR FEW001 BKN003 BKN020 21/20 Q1004 RMK 1ST001 5ST003 5CU020 A2966 1500NE-E
RJSK 160000Z 14004KT 4500 R28/P1800N -SHRA PRFG BR FEW001 SCT003 BKN040 22/20 Q1004
RJSK 152326Z 12004KT 100V160 4500 -SHRA PRFG BR FEW001 BKN003 BKN005 21/20 Q1004 RMK 1ST001 5ST003 6ST005 A2967 2000NE-E
RJSK 152300Z VRB02KT 4500 -SHRA BR FEW001 SCT003 BKN006 21/20 Q1005
RJSK 152216Z 16003KT 130V190 6000 -RA FEW001 BKN004 BKN100 21/20 Q1005 RMK 1ST001 5ST004 5AC100 A2969
RJSK 152200Z 14004KT 120V180 6000 -RA FEW001 SCT100 BKN140 21/20 Q1005
RJSK 152140Z 11005KT 6000 -RA FEW001 SCT120 BKN150 22/20 Q1005 RMK 1ST001 3AC120 7AC150 A2968